sensor_id;sensor_type;location;lat;lon;timestamp;P1;durP1;ratioP1;P2;durP2;ratioP2
10031;SDS011;5056;44.272;19.892;2022-12-07T00:01:44;351.50;;;186.97;;
10031;SDS011;5056;44.272;19.892;2022-12-07T00:04:15;246.23;;;93.73;;
10031;SDS011;5056;44.272;19.892;2022-12-07T00:06:44;270.10;;;87.93;;
10031;SDS011;5056;44.272;19.892;2022-12-07T00:09:12;263.30;;;88.17;;
10031;SDS011;5056;44.272;19.892;2022-12-07T00:11:40;240.13;;;89.10;;
10031;SDS011;5056;44.272;19.892;2022-12-07T00:14:10;387.37;;;113.87;;
10031;SDS011;5056;44.272;19.892;2022-12-07T00:16:37;255.90;;;97.97;;
10031;SDS011;5056;44.272;19.892;2022-12-07T00:19:05;243.60;;;85.23;;
10031;SDS011;5056;44.272;19.892;2022-12-07T00:21:34;385.83;;;107.60;;
10031;SDS011;5056;44.272;19.892;2022-12-07T00:24:04;307.47;;;95.93;;
10031;SDS011;5056;44.272;19.892;2022-12-07T00:26:32;473.73;;;115.50;;
10031;SDS011;5056;44.272;19.892;2022-12-07T00:29:02;364.87;;;118.63;;
10031;SDS011;5056;44.272;19.892;2022-12-07T00:31:31;399.47;;;111.60;;
10031;SDS011;5056;44.272;19.892;2022-12-07T00:34:04;297.63;;;98.60;;
10031;SDS011;5056;44.272;19.892;2022-12-07T00:36:31;347.03;;;95.73;;
10031;SDS011;5056;44.272;19.892;2022-12-07T00:39:00;211.87;;;77.93;;
10031;SDS011;5056;44.272;19.892;2022-12-07T00:41:28;335.87;;;116.17;;
10031;SDS011;5056;44.272;19.892;2022-12-07T00:43:56;210.53;;;83.33;;
10031;SDS011;5056;44.272;19.892;2022-12-07T00:46:24;173.70;;;64.37;;
10031;SDS011;5056;44.272;19.892;2022-12-07T00:48:51;121.37;;;55.07;;
10031;SDS011;5056;44.272;19.892;2022-12-07T00:51:20;144.53;;;56.80;;
10031;SDS011;5056;44.272;19.892;2022-12-07T00:53:48;159.37;;;55.40;;
10031;SDS011;5056;44.272;19.892;2022-12-07T00:56:17;119.00;;;46.53;;
10031;SDS011;5056;44.272;19.892;2022-12-07T00:58:48;90.40;;;42.23;;
10031;SDS011;5056;44.272;19.892;2022-12-07T01:01:17;142.77;;;50.77;;
10031;SDS011;5056;44.272;19.892;2022-12-07T01:03:45;201.50;;;99.40;;
10031;SDS011;5056;44.272;19.892;2022-12-07T01:06:13;168.73;;;66.60;;
10031;SDS011;5056;44.272;19.892;2022-12-07T01:08:42;108.17;;;50.00;;
10031;SDS011;5056;44.272;19.892;2022-12-07T01:18:04;118.87;;;52.67;;
10031;SDS011;5056;44.272;19.892;2022-12-07T01:20:33;91.60;;;44.50;;
10031;SDS011;5056;44.272;19.892;2022-12-07T01:23:00;161.63;;;56.83;;
10031;SDS011;5056;44.272;19.892;2022-12-07T01:25:28;115.17;;;49.50;;
10031;SDS011;5056;44.272;19.892;2022-12-07T01:27:56;92.03;;;45.07;;
10031;SDS011;5056;44.272;19.892;2022-12-07T01:30:24;150.67;;;52.10;;
10031;SDS011;5056;44.272;19.892;2022-12-07T01:32:51;129.60;;;49.37;;
10031;SDS011;5056;44.272;19.892;2022-12-07T01:35:21;88.43;;;45.53;;
10031;SDS011;5056;44.272;19.892;2022-12-07T01:41:09;154.07;;;56.17;;
10031;SDS011;5056;44.272;19.892;2022-12-07T01:44:06;114.90;;;55.17;;
10031;SDS011;5056;44.272;19.892;2022-12-07T01:46:38;148.20;;;53.83;;
10031;SDS011;5056;44.272;19.892;2022-12-07T01:49:08;138.20;;;53.77;;
10031;SDS011;5056;44.272;19.892;2022-12-07T01:51:39;146.70;;;53.87;;
10031;SDS011;5056;44.272;19.892;2022-12-07T01:54:09;104.43;;;50.57;;
10031;SDS011;5056;44.272;19.892;2022-12-07T01:56:38;122.20;;;54.40;;
10031;SDS011;5056;44.272;19.892;2022-12-07T01:59:06;154.40;;;59.07;;
10031;SDS011;5056;44.272;19.892;2022-12-07T02:01:34;159.77;;;55.00;;
10031;SDS011;5056;44.272;19.892;2022-12-07T02:04:01;167.00;;;58.80;;
10031;SDS011;5056;44.272;19.892;2022-12-07T02:06:28;117.00;;;54.47;;
10031;SDS011;5056;44.272;19.892;2022-12-07T02:08:58;197.97;;;77.30;;
10031;SDS011;5056;44.272;19.892;2022-12-07T02:11:26;110.93;;;53.47;;
10031;SDS011;5056;44.272;19.892;2022-12-07T02:13:54;139.53;;;63.97;;
10031;SDS011;5056;44.272;19.892;2022-12-07T02:16:38;140.17;;;57.10;;
10031;SDS011;5056;44.272;19.892;2022-12-07T02:19:33;141.60;;;56.93;;
10031;SDS011;5056;44.272;19.892;2022-12-07T02:22:25;167.50;;;61.17;;
10031;SDS011;5056;44.272;19.892;2022-12-07T02:25:16;110.73;;;52.70;;
10031;SDS011;5056;44.272;19.892;2022-12-07T02:27:49;106.40;;;48.93;;
10031;SDS011;5056;44.272;19.892;2022-12-07T02:30:19;91.50;;;43.90;;
10031;SDS011;5056;44.272;19.892;2022-12-07T02:32:51;100.47;;;46.77;;
10031;SDS011;5056;44.272;19.892;2022-12-07T02:35:24;88.10;;;43.67;;
10031;SDS011;5056;44.272;19.892;2022-12-07T02:37:58;102.60;;;44.33;;
10031;SDS011;5056;44.272;19.892;2022-12-07T02:40:28;99.50;;;45.37;;
10031;SDS011;5056;44.272;19.892;2022-12-07T02:43:00;106.43;;;51.20;;
10031;SDS011;5056;44.272;19.892;2022-12-07T02:45:36;115.77;;;48.90;;
10031;SDS011;5056;44.272;19.892;2022-12-07T02:48:05;113.97;;;49.93;;
10031;SDS011;5056;44.272;19.892;2022-12-07T02:50:34;89.67;;;41.87;;
10031;SDS011;5056;44.272;19.892;2022-12-07T02:53:01;137.43;;;51.20;;
10031;SDS011;5056;44.272;19.892;2022-12-07T02:55:30;123.10;;;49.53;;
10031;SDS011;5056;44.272;19.892;2022-12-07T02:58:06;156.20;;;53.10;;
10031;SDS011;5056;44.272;19.892;2022-12-07T03:00:54;97.97;;;44.30;;
10031;SDS011;5056;44.272;19.892;2022-12-07T03:03:29;194.17;;;55.37;;
10031;SDS011;5056;44.272;19.892;2022-12-07T03:08:44;104.17;;;45.87;;
10031;SDS011;5056;44.272;19.892;2022-12-07T03:11:20;100.77;;;46.00;;
10031;SDS011;5056;44.272;19.892;2022-12-07T03:14:08;158.23;;;57.23;;
10031;SDS011;5056;44.272;19.892;2022-12-07T03:16:45;197.73;;;61.07;;
10031;SDS011;5056;44.272;19.892;2022-12-07T03:19:15;166.43;;;58.83;;
10031;SDS011;5056;44.272;19.892;2022-12-07T03:21:46;130.80;;;50.97;;
10031;SDS011;5056;44.272;19.892;2022-12-07T03:24:18;116.23;;;47.23;;
10031;SDS011;5056;44.272;19.892;2022-12-07T03:26:48;96.87;;;43.47;;
10031;SDS011;5056;44.272;19.892;2022-12-07T03:29:18;121.23;;;53.73;;
10031;SDS011;5056;44.272;19.892;2022-12-07T03:31:51;137.47;;;55.83;;
10031;SDS011;5056;44.272;19.892;2022-12-07T03:34:24;145.37;;;54.17;;
10031;SDS011;5056;44.272;19.892;2022-12-07T03:36:57;154.90;;;56.43;;
10031;SDS011;5056;44.272;19.892;2022-12-07T03:39:27;106.87;;;47.20;;
10031;SDS011;5056;44.272;19.892;2022-12-07T03:41:59;178.40;;;58.33;;
10031;SDS011;5056;44.272;19.892;2022-12-07T03:44:28;128.07;;;50.20;;
10031;SDS011;5056;44.272;19.892;2022-12-07T03:50:29;189.70;;;67.10;;
10031;SDS011;5056;44.272;19.892;2022-12-07T03:52:59;172.53;;;61.03;;
10031;SDS011;5056;44.272;19.892;2022-12-07T03:55:30;174.60;;;108.67;;
10031;SDS011;5056;44.272;19.892;2022-12-07T03:58:01;117.40;;;57.70;;
10031;SDS011;5056;44.272;19.892;2022-12-07T04:00:30;113.13;;;54.83;;
10031;SDS011;5056;44.272;19.892;2022-12-07T04:02:57;243.17;;;64.33;;
10031;SDS011;5056;44.272;19.892;2022-12-07T04:05:26;260.80;;;74.73;;
10031;SDS011;5056;44.272;19.892;2022-12-07T04:07:53;252.80;;;62.90;;
10031;SDS011;5056;44.272;19.892;2022-12-07T04:10:20;165.23;;;60.93;;
10031;SDS011;5056;44.272;19.892;2022-12-07T04:12:47;165.10;;;58.40;;
10031;SDS011;5056;44.272;19.892;2022-12-07T04:15:24;104.77;;;48.13;;
10031;SDS011;5056;44.272;19.892;2022-12-07T04:17:51;252.60;;;80.83;;
10031;SDS011;5056;44.272;19.892;2022-12-07T04:20:19;309.83;;;66.07;;
10031;SDS011;5056;44.272;19.892;2022-12-07T04:22:47;261.40;;;70.93;;
10031;SDS011;5056;44.272;19.892;2022-12-07T04:25:15;105.67;;;53.27;;
10031;SDS011;5056;44.272;19.892;2022-12-07T04:27:42;126.07;;;62.07;;
10031;SDS011;5056;44.272;19.892;2022-12-07T04:30:10;99.57;;;47.03;;
10031;SDS011;5056;44.272;19.892;2022-12-07T04:32:37;216.90;;;79.80;;
10031;SDS011;5056;44.272;19.892;2022-12-07T04:35:13;121.70;;;53.13;;
10031;SDS011;5056;44.272;19.892;2022-12-07T04:37:43;107.23;;;49.97;;
10031;SDS011;5056;44.272;19.892;2022-12-07T04:40:13;117.03;;;54.33;;
10031;SDS011;5056;44.272;19.892;2022-12-07T04:42:40;255.43;;;85.07;;
10031;SDS011;5056;44.272;19.892;2022-12-07T04:45:08;97.17;;;50.17;;
10031;SDS011;5056;44.272;19.892;2022-12-07T04:47:42;96.90;;;48.53;;
10031;SDS011;5056;44.272;19.892;2022-12-07T04:50:09;88.50;;;45.33;;
10031;SDS011;5056;44.272;19.892;2022-12-07T04:52:37;102.90;;;51.80;;
10031;SDS011;5056;44.272;19.892;2022-12-07T04:55:04;134.20;;;57.13;;
10031;SDS011;5056;44.272;19.892;2022-12-07T04:57:33;91.63;;;44.20;;
10031;SDS011;5056;44.272;19.892;2022-12-07T05:00:00;82.53;;;45.00;;
10031;SDS011;5056;44.272;19.892;2022-12-07T05:02:27;76.63;;;41.60;;
10031;SDS011;5056;44.272;19.892;2022-12-07T05:04:54;85.07;;;41.70;;
10031;SDS011;5056;44.272;19.892;2022-12-07T05:07:22;75.60;;;41.37;;
10031;SDS011;5056;44.272;19.892;2022-12-07T05:09:50;92.37;;;46.27;;
10031;SDS011;5056;44.272;19.892;2022-12-07T05:12:17;87.73;;;44.33;;
10031;SDS011;5056;44.272;19.892;2022-12-07T05:14:47;98.93;;;47.63;;
10031;SDS011;5056;44.272;19.892;2022-12-07T05:20:36;87.13;;;47.47;;
10031;SDS011;5056;44.272;19.892;2022-12-07T05:23:04;86.90;;;44.13;;
10031;SDS011;5056;44.272;19.892;2022-12-07T05:25:35;78.10;;;41.93;;
10031;SDS011;5056;44.272;19.892;2022-12-07T05:28:02;69.50;;;38.97;;
10031;SDS011;5056;44.272;19.892;2022-12-07T05:30:35;100.43;;;49.77;;
10031;SDS011;5056;44.272;19.892;2022-12-07T05:33:02;87.67;;;44.27;;
10031;SDS011;5056;44.272;19.892;2022-12-07T05:35:32;89.70;;;46.00;;
10031;SDS011;5056;44.272;19.892;2022-12-07T05:38:00;85.97;;;46.30;;
10031;SDS011;5056;44.272;19.892;2022-12-07T05:40:27;74.43;;;43.10;;
10031;SDS011;5056;44.272;19.892;2022-12-07T05:42:56;78.90;;;43.80;;
10031;SDS011;5056;44.272;19.892;2022-12-07T05:45:24;75.67;;;42.10;;
10031;SDS011;5056;44.272;19.892;2022-12-07T05:47:52;104.83;;;50.20;;
10031;SDS011;5056;44.272;19.892;2022-12-07T05:50:20;79.87;;;43.70;;
10031;SDS011;5056;44.272;19.892;2022-12-07T05:52:47;73.30;;;41.27;;
10031;SDS011;5056;44.272;19.892;2022-12-07T05:55:14;78.53;;;43.33;;
10031;SDS011;5056;44.272;19.892;2022-12-07T05:57:41;82.53;;;40.77;;
10031;SDS011;5056;44.272;19.892;2022-12-07T06:00:30;65.60;;;37.97;;
10031;SDS011;5056;44.272;19.892;2022-12-07T06:02:58;66.10;;;38.47;;
10031;SDS011;5056;44.272;19.892;2022-12-07T06:05:25;71.13;;;37.67;;
10031;SDS011;5056;44.272;19.892;2022-12-07T06:07:52;79.37;;;41.87;;
10031;SDS011;5056;44.272;19.892;2022-12-07T06:10:19;71.07;;;37.00;;
10031;SDS011;5056;44.272;19.892;2022-12-07T06:12:47;74.33;;;38.33;;
10031;SDS011;5056;44.272;19.892;2022-12-07T06:17:54;66.93;;;35.00;;
10031;SDS011;5056;44.272;19.892;2022-12-07T06:20:24;52.30;;;31.13;;
10031;SDS011;5056;44.272;19.892;2022-12-07T06:22:51;75.63;;;37.17;;
10031;SDS011;5056;44.272;19.892;2022-12-07T06:28:39;63.17;;;35.10;;
10031;SDS011;5056;44.272;19.892;2022-12-07T06:31:06;89.30;;;42.23;;
10031;SDS011;5056;44.272;19.892;2022-12-07T06:33:34;71.93;;;36.60;;
10031;SDS011;5056;44.272;19.892;2022-12-07T06:36:07;61.63;;;35.53;;
10031;SDS011;5056;44.272;19.892;2022-12-07T06:38:35;73.53;;;39.40;;
10031;SDS011;5056;44.272;19.892;2022-12-07T06:41:03;84.13;;;42.60;;
10031;SDS011;5056;44.272;19.892;2022-12-07T06:43:30;77.00;;;43.37;;
10031;SDS011;5056;44.272;19.892;2022-12-07T06:45:57;77.10;;;39.93;;
10031;SDS011;5056;44.272;19.892;2022-12-07T06:48:26;70.73;;;40.57;;
10031;SDS011;5056;44.272;19.892;2022-12-07T06:50:53;85.87;;;44.03;;
10031;SDS011;5056;44.272;19.892;2022-12-07T06:53:23;61.83;;;38.27;;
10031;SDS011;5056;44.272;19.892;2022-12-07T06:55:51;70.20;;;42.23;;
10031;SDS011;5056;44.272;19.892;2022-12-07T06:58:19;60.77;;;37.93;;
10031;SDS011;5056;44.272;19.892;2022-12-07T07:00:47;69.37;;;42.07;;
10031;SDS011;5056;44.272;19.892;2022-12-07T07:03:14;62.73;;;40.07;;
10031;SDS011;5056;44.272;19.892;2022-12-07T07:05:42;56.33;;;36.37;;
10031;SDS011;5056;44.272;19.892;2022-12-07T07:08:10;70.90;;;41.13;;
10031;SDS011;5056;44.272;19.892;2022-12-07T07:10:39;55.90;;;33.83;;
10031;SDS011;5056;44.272;19.892;2022-12-07T07:15:47;60.67;;;35.37;;
10031;SDS011;5056;44.272;19.892;2022-12-07T07:18:14;62.50;;;38.43;;
10031;SDS011;5056;44.272;19.892;2022-12-07T07:20:42;64.10;;;37.77;;
10031;SDS011;5056;44.272;19.892;2022-12-07T07:23:09;54.73;;;34.73;;
10031;SDS011;5056;44.272;19.892;2022-12-07T07:25:36;59.77;;;36.43;;
10031;SDS011;5056;44.272;19.892;2022-12-07T07:28:05;71.77;;;39.43;;
10031;SDS011;5056;44.272;19.892;2022-12-07T07:30:32;58.53;;;36.43;;
10031;SDS011;5056;44.272;19.892;2022-12-07T07:33:00;57.10;;;32.63;;
10031;SDS011;5056;44.272;19.892;2022-12-07T07:35:31;59.87;;;35.67;;
10031;SDS011;5056;44.272;19.892;2022-12-07T07:37:58;60.87;;;35.90;;
10031;SDS011;5056;44.272;19.892;2022-12-07T07:40:26;60.80;;;33.00;;
10031;SDS011;5056;44.272;19.892;2022-12-07T07:42:54;51.80;;;32.53;;
10031;SDS011;5056;44.272;19.892;2022-12-07T07:45:25;51.30;;;29.37;;
10031;SDS011;5056;44.272;19.892;2022-12-07T07:47:53;51.93;;;30.57;;
10031;SDS011;5056;44.272;19.892;2022-12-07T07:50:21;48.43;;;28.50;;
10031;SDS011;5056;44.272;19.892;2022-12-07T07:52:50;49.50;;;30.63;;
10031;SDS011;5056;44.272;19.892;2022-12-07T07:55:18;43.03;;;26.10;;
10031;SDS011;5056;44.272;19.892;2022-12-07T07:57:45;56.90;;;31.60;;
10031;SDS011;5056;44.272;19.892;2022-12-07T08:00:13;46.93;;;29.90;;
10031;SDS011;5056;44.272;19.892;2022-12-07T08:02:43;51.03;;;31.83;;
10031;SDS011;5056;44.272;19.892;2022-12-07T08:05:12;54.33;;;33.23;;
10031;SDS011;5056;44.272;19.892;2022-12-07T08:07:39;58.20;;;34.30;;
10031;SDS011;5056;44.272;19.892;2022-12-07T08:10:09;59.70;;;37.77;;
10031;SDS011;5056;44.272;19.892;2022-12-07T08:12:37;52.97;;;35.43;;
10031;SDS011;5056;44.272;19.892;2022-12-07T08:15:25;53.20;;;33.43;;
10031;SDS011;5056;44.272;19.892;2022-12-07T08:17:55;58.77;;;35.77;;
10031;SDS011;5056;44.272;19.892;2022-12-07T08:20:22;57.03;;;37.27;;
10031;SDS011;5056;44.272;19.892;2022-12-07T08:22:49;69.93;;;42.17;;
10031;SDS011;5056;44.272;19.892;2022-12-07T08:25:17;71.37;;;42.37;;
10031;SDS011;5056;44.272;19.892;2022-12-07T08:27:44;55.93;;;36.13;;
10031;SDS011;5056;44.272;19.892;2022-12-07T08:30:12;55.40;;;33.67;;
10031;SDS011;5056;44.272;19.892;2022-12-07T08:32:40;43.17;;;29.70;;
10031;SDS011;5056;44.272;19.892;2022-12-07T08:35:10;65.30;;;37.03;;
10031;SDS011;5056;44.272;19.892;2022-12-07T08:37:38;46.47;;;33.07;;
10031;SDS011;5056;44.272;19.892;2022-12-07T08:42:40;44.67;;;30.03;;
10031;SDS011;5056;44.272;19.892;2022-12-07T08:45:11;46.73;;;30.07;;
10031;SDS011;5056;44.272;19.892;2022-12-07T08:47:41;41.87;;;29.73;;
10031;SDS011;5056;44.272;19.892;2022-12-07T08:50:12;49.93;;;32.97;;
10031;SDS011;5056;44.272;19.892;2022-12-07T08:52:40;43.07;;;28.53;;
10031;SDS011;5056;44.272;19.892;2022-12-07T08:55:11;45.47;;;29.30;;
10031;SDS011;5056;44.272;19.892;2022-12-07T08:57:38;42.17;;;28.80;;
10031;SDS011;5056;44.272;19.892;2022-12-07T09:00:08;43.50;;;28.97;;
10031;SDS011;5056;44.272;19.892;2022-12-07T09:02:37;36.90;;;27.43;;
10031;SDS011;5056;44.272;19.892;2022-12-07T09:05:05;43.13;;;29.03;;
10031;SDS011;5056;44.272;19.892;2022-12-07T09:07:33;42.13;;;28.20;;
10031;SDS011;5056;44.272;19.892;2022-12-07T09:10:00;44.20;;;29.13;;
10031;SDS011;5056;44.272;19.892;2022-12-07T09:15:15;42.67;;;28.70;;
10031;SDS011;5056;44.272;19.892;2022-12-07T09:17:42;36.10;;;27.17;;
10031;SDS011;5056;44.272;19.892;2022-12-07T09:20:11;41.57;;;26.03;;
10031;SDS011;5056;44.272;19.892;2022-12-07T09:22:43;41.90;;;26.63;;
10031;SDS011;5056;44.272;19.892;2022-12-07T09:25:11;45.13;;;29.30;;
10031;SDS011;5056;44.272;19.892;2022-12-07T09:27:38;36.43;;;26.30;;
10031;SDS011;5056;44.272;19.892;2022-12-07T09:30:09;39.07;;;26.03;;
10031;SDS011;5056;44.272;19.892;2022-12-07T09:32:36;39.43;;;26.50;;
10031;SDS011;5056;44.272;19.892;2022-12-07T09:35:04;49.33;;;35.50;;
10031;SDS011;5056;44.272;19.892;2022-12-07T09:37:34;40.03;;;27.13;;
10031;SDS011;5056;44.272;19.892;2022-12-07T09:40:04;34.00;;;24.70;;
10031;SDS011;5056;44.272;19.892;2022-12-07T09:42:32;36.40;;;24.70;;
10031;SDS011;5056;44.272;19.892;2022-12-07T09:45:06;32.60;;;23.67;;
10031;SDS011;5056;44.272;19.892;2022-12-07T09:47:37;29.97;;;22.10;;
10031;SDS011;5056;44.272;19.892;2022-12-07T09:50:07;41.87;;;28.07;;
10031;SDS011;5056;44.272;19.892;2022-12-07T09:52:40;42.13;;;29.30;;
10031;SDS011;5056;44.272;19.892;2022-12-07T09:55:10;55.47;;;41.83;;
10031;SDS011;5056;44.272;19.892;2022-12-07T09:57:40;37.77;;;28.57;;
10031;SDS011;5056;44.272;19.892;2022-12-07T10:00:10;35.73;;;26.23;;
10031;SDS011;5056;44.272;19.892;2022-12-07T10:02:40;29.23;;;22.20;;
10031;SDS011;5056;44.272;19.892;2022-12-07T10:05:10;33.70;;;24.63;;
10031;SDS011;5056;44.272;19.892;2022-12-07T10:07:40;35.67;;;27.73;;
10031;SDS011;5056;44.272;19.892;2022-12-07T10:10:14;44.63;;;33.70;;
10031;SDS011;5056;44.272;19.892;2022-12-07T10:12:53;56.20;;;43.33;;
10031;SDS011;5056;44.272;19.892;2022-12-07T10:15:23;57.63;;;47.50;;
10031;SDS011;5056;44.272;19.892;2022-12-07T10:17:51;28.77;;;21.77;;
10031;SDS011;5056;44.272;19.892;2022-12-07T10:20:24;33.50;;;24.17;;
10031;SDS011;5056;44.272;19.892;2022-12-07T10:22:54;33.73;;;22.77;;
10031;SDS011;5056;44.272;19.892;2022-12-07T10:25:25;48.50;;;37.70;;
10031;SDS011;5056;44.272;19.892;2022-12-07T10:28:00;44.30;;;34.43;;
10031;SDS011;5056;44.272;19.892;2022-12-07T10:30:28;90.43;;;72.90;;
10031;SDS011;5056;44.272;19.892;2022-12-07T10:32:56;42.40;;;31.70;;
10031;SDS011;5056;44.272;19.892;2022-12-07T10:35:25;55.43;;;42.63;;
10031;SDS011;5056;44.272;19.892;2022-12-07T10:37:55;45.83;;;34.30;;
10031;SDS011;5056;44.272;19.892;2022-12-07T10:40:27;65.13;;;49.77;;
10031;SDS011;5056;44.272;19.892;2022-12-07T10:43:04;60.23;;;32.23;;
10031;SDS011;5056;44.272;19.892;2022-12-07T10:45:43;66.83;;;46.13;;
10031;SDS011;5056;44.272;19.892;2022-12-07T10:48:33;91.73;;;43.87;;
10031;SDS011;5056;44.272;19.892;2022-12-07T10:51:17;91.03;;;44.47;;
10031;SDS011;5056;44.272;19.892;2022-12-07T10:53:52;92.13;;;45.87;;
10031;SDS011;5056;44.272;19.892;2022-12-07T10:59:46;44.10;;;31.07;;
10031;SDS011;5056;44.272;19.892;2022-12-07T11:02:26;35.70;;;26.20;;
10031;SDS011;5056;44.272;19.892;2022-12-07T11:05:04;46.17;;;28.73;;
10031;SDS011;5056;44.272;19.892;2022-12-07T11:07:38;44.30;;;29.83;;
10031;SDS011;5056;44.272;19.892;2022-12-07T11:10:11;51.93;;;33.27;;
10031;SDS011;5056;44.272;19.892;2022-12-07T11:12:45;43.43;;;30.67;;
10031;SDS011;5056;44.272;19.892;2022-12-07T11:15:19;61.27;;;44.80;;
10031;SDS011;5056;44.272;19.892;2022-12-07T11:17:52;40.17;;;31.17;;
10031;SDS011;5056;44.272;19.892;2022-12-07T11:23:13;40.20;;;31.27;;
10031;SDS011;5056;44.272;19.892;2022-12-07T11:25:47;34.13;;;27.33;;
10031;SDS011;5056;44.272;19.892;2022-12-07T11:28:21;40.70;;;33.43;;
10031;SDS011;5056;44.272;19.892;2022-12-07T11:30:57;31.50;;;24.23;;
10031;SDS011;5056;44.272;19.892;2022-12-07T11:33:35;40.07;;;25.23;;
10031;SDS011;5056;44.272;19.892;2022-12-07T11:36:08;43.97;;;25.30;;
10031;SDS011;5056;44.272;19.892;2022-12-07T11:38:49;44.07;;;28.87;;
10031;SDS011;5056;44.272;19.892;2022-12-07T11:41:20;34.53;;;24.80;;
10031;SDS011;5056;44.272;19.892;2022-12-07T11:46:50;44.87;;;36.13;;
10031;SDS011;5056;44.272;19.892;2022-12-07T11:49:23;51.47;;;40.90;;
10031;SDS011;5056;44.272;19.892;2022-12-07T11:51:54;35.27;;;29.03;;
10031;SDS011;5056;44.272;19.892;2022-12-07T11:54:25;38.27;;;30.27;;
10031;SDS011;5056;44.272;19.892;2022-12-07T11:59:50;36.27;;;30.30;;
10031;SDS011;5056;44.272;19.892;2022-12-07T12:02:22;32.80;;;27.10;;
10031;SDS011;5056;44.272;19.892;2022-12-07T12:04:52;21.87;;;17.80;;
10031;SDS011;5056;44.272;19.892;2022-12-07T12:07:23;25.23;;;21.20;;
10031;SDS011;5056;44.272;19.892;2022-12-07T12:09:53;43.67;;;36.77;;
10031;SDS011;5056;44.272;19.892;2022-12-07T12:12:24;41.83;;;29.83;;
10031;SDS011;5056;44.272;19.892;2022-12-07T12:15:28;46.73;;;36.00;;
10031;SDS011;5056;44.272;19.892;2022-12-07T12:18:18;41.00;;;27.70;;
10031;SDS011;5056;44.272;19.892;2022-12-07T12:20:53;54.57;;;39.20;;
10031;SDS011;5056;44.272;19.892;2022-12-07T12:23:23;54.30;;;38.67;;
10031;SDS011;5056;44.272;19.892;2022-12-07T12:25:52;63.27;;;41.30;;
10031;SDS011;5056;44.272;19.892;2022-12-07T12:28:24;85.07;;;66.17;;
10031;SDS011;5056;44.272;19.892;2022-12-07T12:31:05;31.10;;;25.80;;
10031;SDS011;5056;44.272;19.892;2022-12-07T12:49:14;33.03;;;24.87;;
10031;SDS011;5056;44.272;19.892;2022-12-07T12:58:43;30.07;;;22.30;;
10031;SDS011;5056;44.272;19.892;2022-12-07T13:04:14;24.90;;;19.47;;
10031;SDS011;5056;44.272;19.892;2022-12-07T13:07:02;26.87;;;20.97;;
10031;SDS011;5056;44.272;19.892;2022-12-07T13:09:43;26.83;;;22.40;;
10031;SDS011;5056;44.272;19.892;2022-12-07T13:12:14;36.30;;;30.53;;
10031;SDS011;5056;44.272;19.892;2022-12-07T13:17:59;43.40;;;32.43;;
10031;SDS011;5056;44.272;19.892;2022-12-07T13:23:23;39.33;;;28.90;;
10031;SDS011;5056;44.272;19.892;2022-12-07T13:25:55;37.20;;;27.40;;
10031;SDS011;5056;44.272;19.892;2022-12-07T13:28:32;43.03;;;28.87;;
10031;SDS011;5056;44.272;19.892;2022-12-07T13:31:09;37.93;;;27.30;;
10031;SDS011;5056;44.272;19.892;2022-12-07T13:33:56;38.83;;;28.83;;
10031;SDS011;5056;44.272;19.892;2022-12-07T13:36:24;39.23;;;28.67;;
10031;SDS011;5056;44.272;19.892;2022-12-07T13:38:53;39.67;;;29.40;;
10031;SDS011;5056;44.272;19.892;2022-12-07T13:41:21;44.70;;;30.67;;
10031;SDS011;5056;44.272;19.892;2022-12-07T13:43:50;42.47;;;33.53;;
10031;SDS011;5056;44.272;19.892;2022-12-07T13:46:23;44.43;;;35.33;;
10031;SDS011;5056;44.272;19.892;2022-12-07T13:48:51;50.03;;;36.57;;
10031;SDS011;5056;44.272;19.892;2022-12-07T13:51:20;40.73;;;32.60;;
10031;SDS011;5056;44.272;19.892;2022-12-07T13:53:50;37.17;;;30.80;;
10031;SDS011;5056;44.272;19.892;2022-12-07T13:56:18;41.83;;;35.77;;
10031;SDS011;5056;44.272;19.892;2022-12-07T13:58:47;39.30;;;28.83;;
10031;SDS011;5056;44.272;19.892;2022-12-07T14:01:15;40.77;;;31.00;;
10031;SDS011;5056;44.272;19.892;2022-12-07T14:03:45;26.27;;;23.10;;
10031;SDS011;5056;44.272;19.892;2022-12-07T14:06:25;24.47;;;20.90;;
10031;SDS011;5056;44.272;19.892;2022-12-07T14:09:07;30.63;;;26.73;;
10031;SDS011;5056;44.272;19.892;2022-12-07T14:11:46;32.93;;;27.13;;
10031;SDS011;5056;44.272;19.892;2022-12-07T14:14:15;26.37;;;23.53;;
10031;SDS011;5056;44.272;19.892;2022-12-07T14:16:55;31.53;;;26.53;;
10031;SDS011;5056;44.272;19.892;2022-12-07T14:22:23;44.03;;;31.97;;
10031;SDS011;5056;44.272;19.892;2022-12-07T14:24:58;60.30;;;47.23;;
10031;SDS011;5056;44.272;19.892;2022-12-07T14:27:38;44.70;;;36.83;;
10031;SDS011;5056;44.272;19.892;2022-12-07T14:30:15;51.20;;;37.80;;
10031;SDS011;5056;44.272;19.892;2022-12-07T14:32:52;43.40;;;35.30;;
10031;SDS011;5056;44.272;19.892;2022-12-07T14:35:22;56.97;;;45.07;;
10031;SDS011;5056;44.272;19.892;2022-12-07T14:37:49;54.60;;;42.70;;
10031;SDS011;5056;44.272;19.892;2022-12-07T14:40:17;64.03;;;52.00;;
10031;SDS011;5056;44.272;19.892;2022-12-07T14:42:46;57.47;;;43.50;;
10031;SDS011;5056;44.272;19.892;2022-12-07T14:45:15;57.67;;;46.27;;
10031;SDS011;5056;44.272;19.892;2022-12-07T14:47:45;56.17;;;43.50;;
10031;SDS011;5056;44.272;19.892;2022-12-07T14:50:13;53.07;;;43.47;;
10031;SDS011;5056;44.272;19.892;2022-12-07T14:55:39;80.57;;;61.13;;
10031;SDS011;5056;44.272;19.892;2022-12-07T14:58:11;59.43;;;49.33;;
10031;SDS011;5056;44.272;19.892;2022-12-07T15:00:42;60.27;;;52.47;;
10031;SDS011;5056;44.272;19.892;2022-12-07T15:03:18;61.23;;;49.67;;
10031;SDS011;5056;44.272;19.892;2022-12-07T15:05:45;71.53;;;55.07;;
10031;SDS011;5056;44.272;19.892;2022-12-07T15:08:13;74.73;;;57.23;;
10031;SDS011;5056;44.272;19.892;2022-12-07T15:10:41;57.00;;;45.57;;
10031;SDS011;5056;44.272;19.892;2022-12-07T15:13:09;52.00;;;44.50;;
10031;SDS011;5056;44.272;19.892;2022-12-07T15:15:54;49.53;;;41.40;;
10031;SDS011;5056;44.272;19.892;2022-12-07T15:18:23;45.00;;;34.90;;
10031;SDS011;5056;44.272;19.892;2022-12-07T15:20:51;61.23;;;46.93;;
10031;SDS011;5056;44.272;19.892;2022-12-07T15:23:20;52.83;;;42.30;;
10031;SDS011;5056;44.272;19.892;2022-12-07T15:25:48;73.40;;;53.37;;
10031;SDS011;5056;44.272;19.892;2022-12-07T15:28:16;78.93;;;52.57;;
10031;SDS011;5056;44.272;19.892;2022-12-07T15:30:44;72.70;;;48.63;;
10031;SDS011;5056;44.272;19.892;2022-12-07T15:33:11;55.33;;;36.77;;
10031;SDS011;5056;44.272;19.892;2022-12-07T15:35:49;61.93;;;42.53;;
10031;SDS011;5056;44.272;19.892;2022-12-07T15:38:30;66.63;;;45.13;;
10031;SDS011;5056;44.272;19.892;2022-12-07T15:40:57;66.40;;;49.47;;
10031;SDS011;5056;44.272;19.892;2022-12-07T15:43:27;50.00;;;36.77;;
10031;SDS011;5056;44.272;19.892;2022-12-07T15:46:11;58.30;;;42.23;;
10031;SDS011;5056;44.272;19.892;2022-12-07T15:48:40;52.77;;;40.70;;
10031;SDS011;5056;44.272;19.892;2022-12-07T15:51:14;64.63;;;47.50;;
10031;SDS011;5056;44.272;19.892;2022-12-07T15:53:43;68.93;;;54.57;;
10031;SDS011;5056;44.272;19.892;2022-12-07T15:56:11;55.57;;;43.57;;
10031;SDS011;5056;44.272;19.892;2022-12-07T16:01:22;84.50;;;55.77;;
10031;SDS011;5056;44.272;19.892;2022-12-07T16:03:53;111.43;;;77.47;;
10031;SDS011;5056;44.272;19.892;2022-12-07T16:06:29;69.30;;;47.57;;